Time;durP1;ratioP1;P1;durP2;ratioP2;P2;SDS_P1;SDS_P2;PMS_P1;PMS_P2;Temp;Humidity;BMP_temperature;BMP_pressure;BME280_temperature;BME280_humidity;BME280_pressure;Samples;Min_cycle;Max_cycle;Signal;HPM_P1;HPM_P2
2023/08/07 00:00:58;;;;;;;9.75;2.55;;;;;;;;;;5150247;27;20031;-70
2023/08/07 00:03:24;;;;;;;8.73;2.45;;;;;;;;;;5150936;27;20111;-71
2023/08/07 00:05:51;;;;;;;7.63;2.55;;;;;;;;;;5150568;27;20027;-71
2023/08/07 00:08:17;;;;;;;9.35;2.50;;;;;;;;;;5150699;27;20022;-71
2023/08/07 00:10:43;;;;;;;11.43;2.80;;;;;;;;;;5151196;27;20385;-70
2023/08/07 00:13:09;;;;;;;6.60;2.28;;;;;;;;;;5149579;27;20433;-70
2023/08/07 00:15:38;;;;;;;4.97;1.92;;;;;;;;;;5150934;27;20109;-70
2023/08/07 00:18:04;;;;;;;8.35;2.17;;;;;;;;;;5132185;27;20448;-70
2023/08/07 00:20:31;;;;;;;6.03;1.83;;;;;;;;;;5150322;27;20513;-71
2023/08/07 00:22:57;;;;;;;7.07;1.60;;;;;;;;;;5150521;27;20813;-70
2023/08/07 00:25:23;;;;;;;8.15;2.08;;;;;;;;;;5150480;27;20464;-71
2023/08/07 00:27:49;;;;;;;8.23;1.77;;;;;;;;;;5150742;27;20022;-70
2023/08/07 00:30:15;;;;;;;3.10;1.40;;;;;;;;;;5149119;27;20027;-70
2023/08/07 00:32:41;;;;;;;5.97;1.85;;;;;;;;;;5150145;27;20106;-70
2023/08/07 00:35:10;;;;;;;6.47;2.17;;;;;;;;;;5150131;27;20638;-71
2023/08/07 00:37:37;;;;;;;4.22;1.48;;;;;;;;;;5150342;27;20050;-71
2023/08/07 00:40:03;;;;;;;7.25;1.77;;;;;;;;;;5150712;27;20026;-71
2023/08/07 00:42:29;;;;;;;6.15;2.00;;;;;;;;;;5150691;27;20019;-73
2023/08/07 00:44:55;;;;;;;6.65;1.48;;;;;;;;;;5150128;27;20034;-70
2023/08/07 00:47:21;;;;;;;5.32;1.50;;;;;;;;;;5150112;27;20031;-72
2023/08/07 00:49:48;;;;;;;8.45;1.83;;;;;;;;;;5150291;27;20049;-71
2023/08/07 00:52:14;;;;;;;7.90;2.17;;;;;;;;;;5150314;27;20026;-72
2023/08/07 00:54:40;;;;;;;7.25;1.65;;;;;;;;;;5150380;27;21085;-71
2023/08/07 00:57:15;;;;;;;9.07;2.25;;;;;;;;;;5148591;27;20043;-70
2023/08/07 00:59:41;;;;;;;7.88;2.60;;;;;;;;;;5148785;27;20019;-71
2023/08/07 01:02:09;;;;;;;7.43;2.00;;;;;;;;;;5150064;27;20049;-70
2023/08/07 01:04:35;;;;;;;9.48;2.50;;;;;;;;;;5150352;27;20118;-70
2023/08/07 01:07:00;;;;;;;9.10;2.20;;;;;;;;;;5150152;27;20106;-71
2023/08/07 01:09:27;;;;;;;7.32;2.28;;;;;;;;;;5150818;27;20720;-71
2023/08/07 01:12:08;;;;;;;9.80;2.38;;;;;;;;;;5151614;27;20023;-71
2023/08/07 01:14:38;;;;;;;10.75;2.45;;;;;;;;;;5153946;27;20476;-70
2023/08/07 01:17:04;;;;;;;;;;;;;;;;;;5154037;27;20078;-70
2023/08/07 01:19:31;;;;;;;10.95;2.30;;;;;;;;;;5152136;27;20360;-71
2023/08/07 01:22:06;;;;;;;6.97;2.08;;;;;;;;;;5153546;27;20176;-71
2023/08/07 01:24:32;;;;;;;11.15;2.70;;;;;;;;;;5153250;27;20072;-72
2023/08/07 01:27:01;;;;;;;10.70;2.53;;;;;;;;;;5153704;27;20026;-71
2023/08/07 01:29:37;;;;;;;13.15;2.58;;;;;;;;;;5153553;27;20030;-71
2023/08/07 01:32:06;;;;;;;12.30;2.92;;;;;;;;;;5151767;27;20498;-70
2023/08/07 01:34:32;;;;;;;15.63;3.25;;;;;;;;;;5153441;27;20019;-71
2023/08/07 01:36:58;;;;;;;12.88;3.30;;;;;;;;;;5153505;27;20055;-71
2023/08/07 01:39:25;;;;;;;18.63;3.33;;;;;;;;;;5153308;27;20054;-70
2023/08/07 01:41:51;;;;;;;15.40;3.30;;;;;;;;;;5153237;27;20058;-71
2023/08/07 01:44:17;;;;;;;14.43;3.42;;;;;;;;;;5153018;27;20034;-70
2023/08/07 01:46:42;;;;;;;10.95;3.10;;;;;;;;;;5152109;27;20018;-70
2023/08/07 01:49:08;;;;;;;12.57;3.80;;;;;;;;;;5153528;27;20168;-70
2023/08/07 01:51:34;;;;;;;11.07;3.63;;;;;;;;;;5152725;27;20023;-70
2023/08/07 01:54:01;;;;;;;13.65;2.88;;;;;;;;;;5153119;27;20023;-70
2023/08/07 01:56:27;;;;;;;19.98;3.97;;;;;;;;;;5152778;27;20073;-71
2023/08/07 01:58:53;;;;;;;16.27;3.90;;;;;;;;;;5153000;27;20101;-70
2023/08/07 02:01:19;;;;;;;15.98;3.38;;;;;;;;;;5152640;27;20480;-71
2023/08/07 02:03:45;;;;;;;21.25;4.45;;;;;;;;;;5151007;27;20027;-71
2023/08/07 02:06:11;;;;;;;16.58;3.30;;;;;;;;;;5152930;27;20064;-70
2023/08/07 02:08:37;;;;;;;13.18;4.22;;;;;;;;;;5153019;27;20038;-70
2023/08/07 02:11:03;;;;;;;19.23;3.85;;;;;;;;;;5152986;27;20760;-69
2023/08/07 02:13:29;;;;;;;15.52;4.50;;;;;;;;;;5152729;27;20030;-69
2023/08/07 02:15:55;;;;;;;15.60;3.78;;;;;;;;;;5152861;27;20388;-71
2023/08/07 02:18:21;;;;;;;13.88;3.83;;;;;;;;;;5152734;27;20022;-71
2023/08/07 02:20:47;;;;;;;13.80;3.40;;;;;;;;;;5152570;27;20480;-71
2023/08/07 02:23:13;;;;;;;16.73;3.90;;;;;;;;;;5152535;27;20019;-70
2023/08/07 02:25:39;;;;;;;11.07;4.05;;;;;;;;;;5152263;27;20501;-71
2023/08/07 02:28:05;;;;;;;23.35;4.38;;;;;;;;;;5152817;27;20071;-72
2023/08/07 02:30:31;;;;;;;18.08;4.63;;;;;;;;;;5152394;27;20019;-71
2023/08/07 02:32:57;;;;;;;19.23;5.18;;;;;;;;;;5152146;27;20027;-70
2023/08/07 02:35:23;;;;;;;15.18;4.60;;;;;;;;;;5152289;27;20026;-70
2023/08/07 02:37:49;;;;;;;16.38;4.63;;;;;;;;;;5152219;27;20055;-72
2023/08/07 02:40:17;;;;;;;17.17;4.63;;;;;;;;;;5151871;27;20026;-71
2023/08/07 02:42:44;;;;;;;17.40;5.68;;;;;;;;;;5152818;27;20679;-71
2023/08/07 02:45:10;;;;;;;14.00;4.35;;;;;;;;;;5151867;27;20019;-70
2023/08/07 02:47:36;;;;;;;13.63;4.63;;;;;;;;;;5152074;27;20106;-70
2023/08/07 02:50:02;;;;;;;18.05;4.68;;;;;;;;;;5151930;27;20022;-70
2023/08/07 02:52:28;;;;;;;13.88;4.93;;;;;;;;;;5151743;27;20027;-71
2023/08/07 02:54:54;;;;;;;19.48;5.93;;;;;;;;;;5152584;27;20718;-69
2023/08/07 02:57:20;;;;;;;15.02;4.85;;;;;;;;;;5151024;27;20034;-70
2023/08/07 02:59:46;;;;;;;17.60;5.32;;;;;;;;;;5152813;27;20019;-71
2023/08/07 03:02:12;;;;;;;17.75;5.18;;;;;;;;;;5152413;27;20058;-70
2023/08/07 03:04:38;;;;;;;18.80;5.40;;;;;;;;;;5152743;27;20106;-70
2023/08/07 03:07:04;;;;;;;11.60;4.90;;;;;;;;;;5152552;27;20019;-70
2023/08/07 03:09:30;;;;;;;16.75;4.50;;;;;;;;;;5152616;27;20023;-70
2023/08/07 03:11:56;;;;;;;14.00;4.10;;;;;;;;;;5152250;27;20019;-71
2023/08/07 03:14:22;;;;;;;13.35;4.18;;;;;;;;;;5152394;27;20077;-71
2023/08/07 03:16:48;;;;;;;16.27;5.28;;;;;;;;;;5152765;27;20030;-71
2023/08/07 03:19:14;;;;;;;18.95;4.88;;;;;;;;;;5152047;27;20459;-71
2023/08/07 03:21:40;;;;;;;15.25;4.22;;;;;;;;;;5152232;27;20023;-71
2023/08/07 03:24:06;;;;;;;18.20;4.90;;;;;;;;;;5152146;27;20027;-70
2023/08/07 03:26:32;;;;;;;21.02;5.25;;;;;;;;;;5152282;27;20030;-71
2023/08/07 03:28:58;;;;;;;13.90;4.53;;;;;;;;;;5151556;27;20022;-71
2023/08/07 03:31:24;;;;;;;16.70;4.43;;;;;;;;;;5152262;27;20022;-70
2023/08/07 03:33:50;;;;;;;16.30;5.70;;;;;;;;;;5149970;27;20065;-70
2023/08/07 03:36:16;;;;;;;13.23;4.60;;;;;;;;;;5150303;27;20550;-71
2023/08/07 03:38:42;;;;;;;15.00;4.07;;;;;;;;;;5152050;27;20023;-70
2023/08/07 03:41:08;;;;;;;12.85;3.85;;;;;;;;;;5150882;27;20023;-69
2023/08/07 03:43:34;;;;;;;11.15;4.43;;;;;;;;;;5152289;27;20537;-69
2023/08/07 03:46:00;;;;;;;16.98;4.00;;;;;;;;;;5151905;27;20023;-70
2023/08/07 03:48:26;;;;;;;16.30;4.20;;;;;;;;;;5151817;27;20054;-70
2023/08/07 03:50:52;;;;;;;19.23;5.15;;;;;;;;;;5151855;27;20098;-70
2023/08/07 03:53:18;;;;;;;16.77;4.65;;;;;;;;;;5151448;27;20038;-70
2023/08/07 03:55:49;;;;;;;14.88;4.38;;;;;;;;;;5152090;27;20030;-70
2023/08/07 03:58:15;;;;;;;10.23;3.00;;;;;;;;;;5152192;27;20026;-70
2023/08/07 04:00:41;;;;;;;15.80;4.03;;;;;;;;;;5151813;27;20027;-70
2023/08/07 04:03:07;;;;;;;12.35;4.35;;;;;;;;;;5151899;27;20023;-71
2023/08/07 04:05:34;;;;;;;12.70;3.83;;;;;;;;;;5152010;27;20054;-71
2023/08/07 04:08:00;;;;;;;15.10;4.07;;;;;;;;;;5151310;27;20177;-70
2023/08/07 04:10:26;;;;;;;17.45;4.10;;;;;;;;;;5151851;27;20144;-71
2023/08/07 04:12:52;;;;;;;14.13;4.40;;;;;;;;;;5151822;27;20035;-71
2023/08/07 04:15:18;;;;;;;11.60;3.30;;;;;;;;;;5151687;27;20084;-71
2023/08/07 04:17:44;;;;;;;11.82;3.05;;;;;;;;;;5150928;27;20086;-71
2023/08/07 04:20:10;;;;;;;13.98;3.33;;;;;;;;;;5151700;27;20029;-70
2023/08/07 04:22:36;;;;;;;12.50;3.63;;;;;;;;;;5151702;27;20055;-72
2023/08/07 04:25:03;;;;;;;14.32;3.80;;;;;;;;;;5150910;27;20598;-72
2023/08/07 04:27:29;;;;;;;12.25;3.65;;;;;;;;;;5151333;27;20168;-71
2023/08/07 04:29:55;;;;;;;13.00;3.72;;;;;;;;;;5151295;27;20101;-71
2023/08/07 04:32:21;;;;;;;10.55;3.70;;;;;;;;;;5151530;27;20535;-72
2023/08/07 04:34:47;;;;;;;7.70;2.85;;;;;;;;;;5151373;27;20087;-71
2023/08/07 04:37:13;;;;;;;14.77;3.20;;;;;;;;;;5151219;27;20054;-70
2023/08/07 04:39:39;;;;;;;8.13;3.22;;;;;;;;;;5151427;27;20019;-72
2023/08/07 04:42:05;;;;;;;9.70;3.05;;;;;;;;;;5151024;27;20058;-70
2023/08/07 04:44:31;;;;;;;11.07;4.03;;;;;;;;;;5151199;27;20034;-70
2023/08/07 04:46:57;;;;;;;11.82;3.45;;;;;;;;;;5153501;27;20115;-70
2023/08/07 04:49:23;;;;;;;11.73;3.47;;;;;;;;;;5155371;27;20057;-71
2023/08/07 04:51:49;;;;;;;13.70;3.67;;;;;;;;;;5154753;27;20059;-72
2023/08/07 04:54:15;;;;;;;11.50;3.55;;;;;;;;;;5154792;27;20035;-73
2023/08/07 04:56:43;;;;;;;11.20;2.92;;;;;;;;;;5154996;27;20041;-71
2023/08/07 04:59:09;;;;;;;10.60;3.60;;;;;;;;;;5155023;27;20015;-70
2023/08/07 05:01:35;;;;;;;13.73;3.85;;;;;;;;;;5154968;27;20023;-70
2023/08/07 05:04:02;;;;;;;12.43;3.70;;;;;;;;;;5153363;27;20027;-71
2023/08/07 05:06:28;;;;;;;15.60;3.67;;;;;;;;;;5155240;27;20085;-72
2023/08/07 05:08:54;;;;;;;11.90;3.90;;;;;;;;;;5155085;27;20480;-70
2023/08/07 05:11:20;;;;;;;15.60;3.63;;;;;;;;;;5154949;27;20030;-69
2023/08/07 05:13:46;;;;;;;14.32;4.90;;;;;;;;;;5154865;27;20037;-70
2023/08/07 05:16:12;;;;;;;13.70;3.50;;;;;;;;;;5155258;27;20027;-70
2023/08/07 05:18:38;;;;;;;11.32;3.50;;;;;;;;;;5154836;27;20027;-70
2023/08/07 05:21:04;;;;;;;13.32;4.05;;;;;;;;;;5154624;27;20349;-71
2023/08/07 05:23:30;;;;;;;16.10;4.25;;;;;;;;;;5154330;27;20061;-70
2023/08/07 05:25:56;;;;;;;14.27;4.57;;;;;;;;;;5154560;27;20023;-71
2023/08/07 05:28:22;;;;;;;12.50;4.35;;;;;;;;;;5153337;27;20050;-71
2023/08/07 05:30:48;;;;;;;15.48;4.78;;;;;;;;;;5154536;27;20103;-70
2023/08/07 05:33:15;;;;;;;16.20;4.13;;;;;;;;;;5154112;27;20162;-70
2023/08/07 05:35:41;;;;;;;10.00;3.20;;;;;;;;;;5154693;27;20026;-70
2023/08/07 05:38:07;;;;;;;13.32;3.95;;;;;;;;;;5153937;27;20522;-70
2023/08/07 05:40:36;;;;;;;13.75;3.53;;;;;;;;;;5152955;27;20525;-70
2023/08/07 05:43:02;;;;;;;12.35;3.40;;;;;;;;;;5154476;27;20018;-70
2023/08/07 05:45:28;;;;;;;14.50;4.85;;;;;;;;;;5153807;27;20075;-71
2023/08/07 05:47:54;;;;;;;15.25;4.22;;;;;;;;;;5152854;27;20570;-70
2023/08/07 05:50:20;;;;;;;17.27;4.65;;;;;;;;;;5153197;27;20050;-70
2023/08/07 05:52:46;;;;;;;17.02;4.55;;;;;;;;;;5152680;27;20062;-70
2023/08/07 05:55:12;;;;;;;24.88;5.68;;;;;;;;;;5152960;27;20014;-70
2023/08/07 05:57:38;;;;;;;18.10;5.10;;;;;;;;;;5152022;27;20043;-69
2023/08/07 06:00:05;;;;;;;10.95;4.10;;;;;;;;;;5152904;27;20114;-68
2023/08/07 06:02:31;;;;;;;12.73;4.72;;;;;;;;;;5153034;27;20080;-70
2023/08/07 06:04:57;;;;;;;15.73;4.45;;;;;;;;;;5152305;27;20023;-69
2023/08/07 06:07:23;;;;;;;18.52;5.43;;;;;;;;;;5152879;27;20030;-70
2023/08/07 06:09:49;;;;;;;11.07;3.33;;;;;;;;;;5152868;27;20600;-71
2023/08/07 06:12:15;;;;;;;15.05;4.00;;;;;;;;;;5152864;27;20044;-70
2023/08/07 06:14:41;;;;;;;20.73;4.72;;;;;;;;;;5152908;27;20031;-70
2023/08/07 06:17:07;;;;;;;13.30;3.95;;;;;;;;;;5152335;27;20103;-71
2023/08/07 06:19:33;;;;;;;12.15;3.42;;;;;;;;;;5151341;27;20471;-70
2023/08/07 06:21:59;;;;;;;17.95;4.63;;;;;;;;;;5152476;27;20068;-69
2023/08/07 06:24:25;;;;;;;16.30;4.68;;;;;;;;;;5153124;27;20026;-71
2023/08/07 06:26:51;;;;;;;13.07;4.50;;;;;;;;;;5152533;27;20058;-70
2023/08/07 06:29:17;;;;;;;19.05;5.05;;;;;;;;;;5152885;27;20026;-70
2023/08/07 06:31:43;;;;;;;12.50;4.65;;;;;;;;;;5152203;27;20067;-70
2023/08/07 06:34:09;;;;;;;16.55;4.75;;;;;;;;;;5152814;27;20030;-70
2023/08/07 06:36:35;;;;;;;10.85;3.67;;;;;;;;;;5151251;27;20050;-69
2023/08/07 06:39:02;;;;;;;15.05;5.03;;;;;;;;;;5149326;27;20030;-70
2023/08/07 06:41:28;;;;;;;10.95;3.13;;;;;;;;;;5150698;27;20495;-69
2023/08/07 06:43:54;;;;;;;18.10;4.65;;;;;;;;;;5150776;27;20027;-71
2023/08/07 06:46:24;;;;;;;12.85;3.90;;;;;;;;;;5150062;27;20026;-70
2023/08/07 06:48:50;;;;;;;9.50;3.20;;;;;;;;;;5150213;27;20022;-70
2023/08/07 06:51:16;;;;;;;13.32;3.80;;;;;;;;;;5150261;27;20023;-70
2023/08/07 06:53:42;;;;;;;12.68;4.10;;;;;;;;;;5150282;27;20458;-71
2023/08/07 06:56:08;;;;;;;11.25;3.42;;;;;;;;;;5151457;27;20031;-70
2023/08/07 06:58:35;;;;;;;11.02;3.67;;;;;;;;;;5152224;27;20041;-70
2023/08/07 07:01:00;;;;;;;17.77;3.88;;;;;;;;;;5152132;27;20101;-70
2023/08/07 07:03:26;;;;;;;10.20;2.92;;;;;;;;;;5151703;27;20102;-71
2023/08/07 07:05:52;;;;;;;13.90;4.50;;;;;;;;;;5151249;27;20023;-71
2023/08/07 07:08:18;;;;;;;13.32;4.15;;;;;;;;;;5152043;27;20026;-71
2023/08/07 07:10:44;;;;;;;12.68;4.10;;;;;;;;;;5150179;27;20051;-71
2023/08/07 07:13:10;;;;;;;11.63;3.38;;;;;;;;;;5151547;27;20034;-70
2023/08/07 07:15:36;;;;;;;10.20;3.15;;;;;;;;;;5150991;27;20418;-70
2023/08/07 07:18:02;;;;;;;10.95;2.95;;;;;;;;;;5150833;27;20121;-69
2023/08/07 07:20:28;;;;;;;13.48;3.70;;;;;;;;;;5151466;27;20531;-70
2023/08/07 07:22:54;;;;;;;9.60;2.53;;;;;;;;;;5151067;27;20235;-70
2023/08/07 07:25:20;;;;;;;11.10;3.10;;;;;;;;;;5151020;27;20023;-73
2023/08/07 07:27:46;;;;;;;17.73;3.75;;;;;;;;;;5151026;27;20030;-70
2023/08/07 07:30:12;;;;;;;12.75;2.92;;;;;;;;;;5151032;27;20112;-70
2023/08/07 07:32:39;;;;;;;12.55;4.22;;;;;;;;;;5151498;27;20026;-71
2023/08/07 07:35:06;;;;;;;12.90;4.40;;;;;;;;;;5150953;27;20468;-71
2023/08/07 07:37:33;;;;;;;15.95;4.45;;;;;;;;;;5150703;27;20567;-71
2023/08/07 07:39:59;;;;;;;15.07;4.53;;;;;;;;;;5149896;27;20034;-71
2023/08/07 07:42:25;;;;;;;21.20;4.38;;;;;;;;;;5151144;27;20084;-69
2023/08/07 07:44:51;;;;;;;12.57;3.63;;;;;;;;;;5151380;27;20026;-69
2023/08/07 07:47:18;;;;;;;17.38;5.30;;;;;;;;;;5151430;27;20113;-70
2023/08/07 07:49:49;;;;;;;15.55;4.90;;;;;;;;;;5150549;27;20110;-70
2023/08/07 07:52:15;;;;;;;11.30;3.95;;;;;;;;;;5149301;27;20023;-71
2023/08/07 07:54:41;;;;;;;14.15;3.58;;;;;;;;;;5150879;27;20023;-71
2023/08/07 07:57:07;;;;;;;10.45;3.22;;;;;;;;;;5150336;27;20153;-70
2023/08/07 07:59:33;;;;;;;13.18;3.63;;;;;;;;;;5150937;27;20021;-69
2023/08/07 08:01:59;;;;;;;15.30;4.10;;;;;;;;;;5150526;27;20447;-70
2023/08/07 08:04:25;;;;;;;15.30;4.40;;;;;;;;;;5151768;27;20027;-70
2023/08/07 08:06:52;;;;;;;9.88;3.67;;;;;;;;;;5150479;27;20054;-71
2023/08/07 08:09:18;;;;;;;12.00;4.45;;;;;;;;;;5151454;27;20023;-70
2023/08/07 08:11:44;;;;;;;12.65;4.45;;;;;;;;;;5150565;27;20126;-71
2023/08/07 08:14:10;;;;;;;13.95;3.78;;;;;;;;;;5150146;27;20027;-71
2023/08/07 08:16:36;;;;;;;8.93;2.67;;;;;;;;;;5150441;27;20030;-71
2023/08/07 08:19:02;;;;;;;13.05;3.65;;;;;;;;;;5149550;27;20114;-73
2023/08/07 08:21:30;;;;;;;11.27;3.08;;;;;;;;;;5153701;27;20744;-74
2023/08/07 08:23:56;;;;;;;13.23;3.35;;;;;;;;;;5154951;27;20014;-74
2023/08/07 08:26:22;;;;;;;13.30;3.45;;;;;;;;;;5154609;27;20391;-72
2023/08/07 08:28:48;;;;;;;10.85;3.03;;;;;;;;;;5154331;27;20072;-72
2023/08/07 08:31:14;;;;;;;13.65;4.22;;;;;;;;;;5154544;27;20055;-74
2023/08/07 08:33:40;;;;;;;12.00;3.20;;;;;;;;;;5154651;27;20076;-72
2023/08/07 08:36:06;;;;;;;11.30;3.08;;;;;;;;;;5153768;27;20026;-71
2023/08/07 08:38:33;;;;;;;13.05;3.25;;;;;;;;;;5154955;27;20054;-73
2023/08/07 08:41:01;;;;;;;14.10;3.47;;;;;;;;;;5154118;27;20072;-71
2023/08/07 08:43:29;;;;;;;15.57;3.95;;;;;;;;;;5154280;27;20031;-73
2023/08/07 08:45:55;;;;;;;17.23;4.10;;;;;;;;;;5153195;27;20098;-72
2023/08/07 08:48:23;;;;;;;12.70;3.72;;;;;;;;;;5153961;27;20109;-73
2023/08/07 08:50:50;;;;;;;10.25;2.85;;;;;;;;;;5154364;27;20018;-73
2023/08/07 08:53:16;;;;;;;9.68;3.30;;;;;;;;;;5152197;27;20395;-73
2023/08/07 08:55:46;;;;;;;13.50;3.80;;;;;;;;;;5149570;27;20030;-72
2023/08/07 08:58:12;;;;;;;14.00;4.10;;;;;;;;;;5151311;27;20031;-73
2023/08/07 09:00:40;;;;;;;10.85;3.17;;;;;;;;;;5151635;27;20029;-72
2023/08/07 09:03:06;;;;;;;11.98;3.85;;;;;;;;;;5151151;27;20529;-73
2023/08/07 09:05:32;;;;;;;17.67;4.95;;;;;;;;;;5151588;27;20030;-72
2023/08/07 09:07:59;;;;;;;19.13;4.35;;;;;;;;;;5151355;27;20512;-71
2023/08/07 09:10:25;;;;;;;10.00;3.65;;;;;;;;;;5151923;27;20037;-73
2023/08/07 09:12:57;;;;;;;15.05;3.63;;;;;;;;;;5153422;27;20043;-73
2023/08/07 09:15:25;;;;;;;17.25;5.00;;;;;;;;;;5153651;27;20022;-73
2023/08/07 09:17:52;;;;;;;9.13;3.10;;;;;;;;;;5153661;27;20037;-72
2023/08/07 09:20:19;;;;;;;14.95;4.00;;;;;;;;;;5153608;27;20019;-74
2023/08/07 09:22:46;;;;;;;12.48;3.60;;;;;;;;;;5151960;27;20102;-73
2023/08/07 09:25:12;;;;;;;17.38;4.45;;;;;;;;;;5152446;27;20454;-74
2023/08/07 09:27:39;;;;;;;13.27;2.97;;;;;;;;;;5154240;27;20038;-74
2023/08/07 09:30:06;;;;;;;18.52;4.40;;;;;;;;;;5153820;27;20061;-73
2023/08/07 09:32:32;;;;;;;14.15;3.85;;;;;;;;;;5153106;27;20130;-73
2023/08/07 09:34:58;;;;;;;10.27;2.63;;;;;;;;;;5153861;27;20314;-72
2023/08/07 09:37:24;;;;;;;20.77;2.95;;;;;;;;;;5154368;27;20046;-73
2023/08/07 09:39:51;;;;;;;12.35;3.75;;;;;;;;;;5154241;27;20022;-73
2023/08/07 09:42:17;;;;;;;11.18;3.50;;;;;;;;;;5154184;27;20023;-73
2023/08/07 09:44:48;;;;;;;10.82;3.30;;;;;;;;;;5153627;27;20089;-73
2023/08/07 09:47:14;;;;;;;9.57;3.03;;;;;;;;;;5152307;27;20549;-75
2023/08/07 09:49:40;;;;;;;17.65;3.70;;;;;;;;;;5152465;27;20027;-74
2023/08/07 09:52:07;;;;;;;14.45;3.80;;;;;;;;;;5153471;27;20090;-73
2023/08/07 09:54:33;;;;;;;11.70;3.03;;;;;;;;;;5154107;27;20025;-73
2023/08/07 09:57:01;;;;;;;11.68;3.70;;;;;;;;;;5151260;27;20030;-74
2023/08/07 09:59:28;;;;;;;8.15;2.78;;;;;;;;;;5153178;27;20101;-72
2023/08/07 10:01:55;;;;;;;8.38;2.63;;;;;;;;;;5153021;27;20547;-73
2023/08/07 10:04:24;;;;;;;8.30;2.30;;;;;;;;;;5153675;27;20025;-72
2023/08/07 10:06:50;;;;;;;6.35;2.30;;;;;;;;;;5153599;27;20113;-72
2023/08/07 10:09:16;;;;;;;13.55;2.65;;;;;;;;;;5153409;27;20023;-76
2023/08/07 10:11:43;;;;;;;6.68;1.92;;;;;;;;;;5153514;27;20610;-75
2023/08/07 10:14:09;;;;;;;13.18;3.05;;;;;;;;;;5152284;27;20049;-75
2023/08/07 10:16:40;;;;;;;9.23;2.95;;;;;;;;;;5153520;27;20046;-76
2023/08/07 10:19:06;;;;;;;9.52;3.08;;;;;;;;;;5153573;27;20098;-74
2023/08/07 10:21:33;;;;;;;11.15;2.65;;;;;;;;;;5152567;27;20086;-73
2023/08/07 10:24:00;;;;;;;8.15;2.50;;;;;;;;;;5152375;27;20030;-73
2023/08/07 10:26:27;;;;;;;11.05;2.90;;;;;;;;;;5151982;27;20388;-72
2023/08/07 10:28:53;;;;;;;9.65;2.83;;;;;;;;;;5152162;27;20063;-74
2023/08/07 10:31:21;;;;;;;12.02;2.90;;;;;;;;;;5153406;27;20022;-74
2023/08/07 10:33:47;;;;;;;8.18;2.75;;;;;;;;;;5151642;27;20385;-73
2023/08/07 10:36:13;;;;;;;8.57;2.47;;;;;;;;;;5153124;27;20025;-74
2023/08/07 10:38:39;;;;;;;10.35;3.30;;;;;;;;;;5153264;27;20046;-72
2023/08/07 10:41:09;;;;;;;8.25;2.70;;;;;;;;;;5153388;27;20402;-73
2023/08/07 10:43:42;;;;;;;12.95;3.13;;;;;;;;;;5152680;27;20051;-72
2023/08/07 10:46:21;;;;;;;12.82;3.38;;;;;;;;;;5152877;27;20023;-72
2023/08/07 10:48:47;;;;;;;9.00;2.60;;;;;;;;;;5151650;27;20113;-75
2023/08/07 10:51:18;;;;;;;11.07;2.90;;;;;;;;;;5153404;27;20101;-73
2023/08/07 10:53:45;;;;;;;14.20;3.95;;;;;;;;;;5151907;27;20110;-73
2023/08/07 10:56:15;;;;;;;13.73;4.15;;;;;;;;;;5152817;27;20069;-73
2023/08/07 10:58:41;;;;;;;13.55;3.30;;;;;;;;;;5152977;27;20044;-73
2023/08/07 11:01:20;;;;;;;12.25;3.35;;;;;;;;;;5151956;27;20090;-75
2023/08/07 11:03:54;;;;;;;14.40;3.47;;;;;;;;;;5151706;27;20018;-73
2023/08/07 11:06:27;;;;;;;12.13;2.90;;;;;;;;;;5149842;27;20060;-73
2023/08/07 11:08:53;;;;;;;9.75;2.42;;;;;;;;;;5152490;27;20022;-77
2023/08/07 11:11:19;;;;;;;10.90;2.75;;;;;;;;;;5151945;27;20469;-73
2023/08/07 11:13:45;;;;;;;6.95;2.13;;;;;;;;;;5150286;27;20018;-75
2023/08/07 11:16:12;;;;;;;9.48;2.38;;;;;;;;;;5151434;27;20532;-73
2023/08/07 11:18:41;;;;;;;7.78;2.40;;;;;;;;;;5151412;27;20048;-74
2023/08/07 11:21:07;;;;;;;7.18;2.28;;;;;;;;;;5151268;27;20027;-75
2023/08/07 11:23:33;;;;;;;9.30;2.42;;;;;;;;;;5151446;27;20396;-76
2023/08/07 11:25:59;;;;;;;10.43;2.65;;;;;;;;;;5150120;27;20361;-74
2023/08/07 11:28:25;;;;;;;8.70;2.30;;;;;;;;;;5151379;27;20079;-76
2023/08/07 11:30:52;;;;;;;9.57;2.63;;;;;;;;;;5151422;27;20026;-74
2023/08/07 11:33:19;;;;;;;10.80;2.90;;;;;;;;;;5151173;27;20048;-74
2023/08/07 11:35:45;;;;;;;6.57;2.10;;;;;;;;;;5150860;27;20021;-72
2023/08/07 11:38:11;;;;;;;9.23;2.67;;;;;;;;;;5149759;27;20051;-72
2023/08/07 11:40:37;;;;;;;11.07;3.03;;;;;;;;;;5149323;27;20110;-73
2023/08/07 11:43:03;;;;;;;7.22;2.50;;;;;;;;;;5150643;27;20034;-72
2023/08/07 11:45:29;;;;;;;9.43;2.50;;;;;;;;;;5150714;27;20032;-74
2023/08/07 11:47:59;;;;;;;10.73;2.75;;;;;;;;;;5149393;27;20038;-73
2023/08/07 11:50:25;;;;;;;8.00;2.77;;;;;;;;;;5151088;27;20083;-72
2023/08/07 11:52:51;;;;;;;13.55;3.00;;;;;;;;;;5146513;27;20027;-73
2023/08/07 11:55:18;;;;;;;7.45;1.95;;;;;;;;;;5129509;27;20106;-74
2023/08/07 11:57:46;;;;;;;10.38;2.58;;;;;;;;;;5130234;27;20027;-72
2023/08/07 12:00:16;;;;;;;9.75;2.40;;;;;;;;;;5130369;27;20023;-73
2023/08/07 12:02:43;;;;;;;8.32;2.17;;;;;;;;;;5128074;28;20569;-75
2023/08/07 12:05:12;;;;;;;7.00;2.45;;;;;;;;;;5128862;27;20062;-74
2023/08/07 12:07:39;;;;;;;4.93;1.73;;;;;;;;;;5128457;27;20023;-73
2023/08/07 12:10:09;;;;;;;8.18;2.40;;;;;;;;;;5129231;27;20015;-77
2023/08/07 12:12:38;;;;;;;7.70;2.28;;;;;;;;;;5127425;28;20075;-73
2023/08/07 12:15:08;;;;;;;8.23;2.22;;;;;;;;;;5127276;28;20488;-76
2023/08/07 12:17:34;;;;;;;9.18;2.25;;;;;;;;;;5128301;27;20479;-73
2023/08/07 12:20:00;;;;;;;11.63;2.72;;;;;;;;;;5144157;27;20019;-74
2023/08/07 12:22:28;;;;;;;9.50;2.55;;;;;;;;;;5150806;27;20149;-74
2023/08/07 12:24:54;;;;;;;8.18;2.42;;;;;;;;;;5150225;27;20022;-72
2023/08/07 12:27:20;;;;;;;9.02;2.85;;;;;;;;;;5150659;27;20023;-73
2023/08/07 12:29:46;;;;;;;7.93;2.25;;;;;;;;;;5149458;27;20034;-75
2023/08/07 12:32:12;;;;;;;6.00;2.28;;;;;;;;;;5149639;27;20038;-73
2023/08/07 12:34:38;;;;;;;11.35;2.55;;;;;;;;;;5148327;27;20023;-72
2023/08/07 12:37:05;;;;;;;11.20;3.22;;;;;;;;;;5149879;27;20118;-75
2023/08/07 12:39:31;;;;;;;7.38;2.25;;;;;;;;;;5150499;27;20131;-72
2023/08/07 12:41:58;;;;;;;8.73;2.85;;;;;;;;;;5148325;27;20036;-74
2023/08/07 12:44:24;;;;;;;12.50;3.50;;;;;;;;;;5150744;27;20022;-73
2023/08/07 12:46:50;;;;;;;12.57;3.00;;;;;;;;;;5150179;27;20030;-73
2023/08/07 12:49:16;;;;;;;10.75;2.42;;;;;;;;;;5150660;27;20019;-74
2023/08/07 12:51:42;;;;;;;6.00;2.05;;;;;;;;;;5150716;27;20073;-72
2023/08/07 12:54:09;;;;;;;8.88;2.15;;;;;;;;;;5149565;27;20037;-74
2023/08/07 12:56:35;;;;;;;8.75;2.45;;;;;;;;;;5150298;27;20136;-74
2023/08/07 12:59:02;;;;;;;5.82;1.73;;;;;;;;;;5150308;27;20019;-74
2023/08/07 13:01:28;;;;;;;7.22;2.17;;;;;;;;;;5150134;27;20041;-74
2023/08/07 13:03:54;;;;;;;10.43;2.20;;;;;;;;;;5149918;27;20027;-72
2023/08/07 13:06:21;;;;;;;9.45;2.17;;;;;;;;;;5151326;27;20084;-73
2023/08/07 13:08:47;;;;;;;6.60;2.15;;;;;;;;;;5154396;27;20019;-73
2023/08/07 13:11:13;;;;;;;6.18;2.13;;;;;;;;;;5154118;27;20025;-74
2023/08/07 13:13:40;;;;;;;8.73;2.38;;;;;;;;;;5154924;27;20031;-73
2023/08/07 13:16:06;;;;;;;4.72;1.63;;;;;;;;;;5154703;27;20022;-74
2023/08/07 13:18:32;;;;;;;13.48;3.22;;;;;;;;;;5153706;27;20022;-74
2023/08/07 13:20:58;;;;;;;4.55;1.50;;;;;;;;;;5154146;27;20064;-74
2023/08/07 13:23:26;;;;;;;8.57;1.80;;;;;;;;;;5154146;27;20374;-74
2023/08/07 13:25:52;;;;;;;6.05;1.80;;;;;;;;;;5153619;27;20034;-74
2023/08/07 13:28:18;;;;;;;5.18;1.88;;;;;;;;;;5152889;27;20026;-75
2023/08/07 13:30:44;;;;;;;3.60;1.63;;;;;;;;;;5152945;27;20027;-73
2023/08/07 13:33:10;;;;;;;8.18;2.42;;;;;;;;;;5153712;27;20031;-75
2023/08/07 13:35:37;;;;;;;8.93;2.20;;;;;;;;;;5153918;27;20025;-75
2023/08/07 13:38:05;;;;;;;7.63;2.05;;;;;;;;;;5152048;27;20567;-73
2023/08/07 13:40:31;;;;;;;7.43;1.88;;;;;;;;;;5152992;27;20475;-75
2023/08/07 13:42:58;;;;;;;10.38;2.20;;;;;;;;;;5151594;27;20027;-74
2023/08/07 13:45:25;;;;;;;5.32;1.75;;;;;;;;;;5151925;27;20042;-75
2023/08/07 13:47:51;;;;;;;5.90;1.50;;;;;;;;;;5151674;27;20413;-74
2023/08/07 13:50:17;;;;;;;6.10;2.08;;;;;;;;;;5151575;27;20027;-74
2023/08/07 13:52:44;;;;;;;6.07;1.95;;;;;;;;;;5151586;27;20677;-73
2023/08/07 13:55:10;;;;;;;4.43;1.63;;;;;;;;;;5152019;27;20109;-74
2023/08/07 13:57:36;;;;;;;5.82;1.98;;;;;;;;;;5153230;27;20035;-75
2023/08/07 14:00:02;;;;;;;9.57;2.53;;;;;;;;;;5154377;27;20030;-75
2023/08/07 14:02:30;;;;;;;6.95;2.50;;;;;;;;;;5153183;27;20098;-72
2023/08/07 14:04:57;;;;;;;6.68;1.73;;;;;;;;;;5153293;27;20015;-75
2023/08/07 14:07:23;;;;;;;4.80;1.52;;;;;;;;;;5153283;27;20014;-72
2023/08/07 14:09:49;;;;;;;3.95;1.20;;;;;;;;;;5152927;27;20033;-75
2023/08/07 14:12:15;;;;;;;8.07;1.92;;;;;;;;;;5152872;27;20491;-75
2023/08/07 14:14:42;;;;;;;6.03;1.40;;;;;;;;;;5153289;27;20037;-75
2023/08/07 14:17:08;;;;;;;8.85;1.67;;;;;;;;;;5152879;27;20039;-74
2023/08/07 14:19:34;;;;;;;3.95;1.33;;;;;;;;;;5150981;27;20022;-75
2023/08/07 14:22:00;;;;;;;5.28;1.73;;;;;;;;;;5153235;27;20026;-75
2023/08/07 14:24:27;;;;;;;4.60;1.10;;;;;;;;;;5151544;27;20030;-75
2023/08/07 14:26:53;;;;;;;4.78;1.40;;;;;;;;;;5153094;27;20027;-75
2023/08/07 14:29:19;;;;;;;4.47;1.60;;;;;;;;;;5151374;27;20019;-75
2023/08/07 14:31:45;;;;;;;5.22;1.30;;;;;;;;;;5152882;27;20015;-78